createdAt,value
2019-05-21T00:02:39.644Z,16.01
2019-05-21T00:05:27.633Z,15.75
2019-05-21T00:08:14.425Z,15.55
2019-05-21T00:11:01.962Z,16.08
2019-05-21T00:13:49.606Z,15.48
2019-05-21T00:16:36.879Z,15.28
2019-05-21T00:19:24.554Z,15.17
2019-05-21T00:22:11.568Z,15.07
2019-05-21T00:24:58.732Z,15.00
2019-05-21T00:27:45.953Z,15.67
2019-05-21T00:31:10.354Z,15.14
2019-05-21T00:34:53.275Z,14.96
2019-05-21T00:38:36.164Z,14.82
2019-05-21T00:41:59.833Z,14.66
2019-05-21T00:44:47.309Z,14.57
2019-05-21T00:47:34.373Z,14.51
2019-05-21T00:56:35.510Z,14.24
2019-05-21T00:59:22.825Z,14.86
2019-05-21T01:02:09.980Z,15.04
2019-05-21T01:05:00.895Z,15.15
2019-05-21T01:07:45.309Z,14.60
2019-05-21T01:13:39.574Z,14.33
2019-05-21T01:16:26.857Z,14.22
2019-05-21T01:22:20.936Z,13.90
2019-05-21T01:25:09.259Z,13.75
2019-05-21T01:27:58.042Z,13.63
2019-05-21T01:30:46.971Z,13.51
2019-05-21T01:33:33.785Z,13.47
2019-05-21T01:36:21.716Z,13.43
2019-05-21T01:39:08.522Z,13.46
2019-05-21T01:41:56.388Z,13.49
2019-05-21T01:47:50.931Z,13.69
2019-05-21T01:50:39.501Z,13.62
2019-05-21T01:53:27.332Z,14.24
2019-05-21T01:56:14.431Z,13.78
2019-05-21T01:59:01.815Z,14.29
2019-05-21T02:08:03.683Z,13.49
2019-05-21T02:10:52.431Z,13.42
2019-05-21T02:13:40.341Z,13.35
2019-05-21T02:16:28.274Z,13.24
2019-05-21T02:19:15.522Z,13.15
2019-05-21T02:25:08.759Z,13.99
2019-05-21T02:27:56.312Z,13.44
2019-05-21T02:30:43.244Z,13.28
2019-05-21T02:36:37.188Z,13.12
2019-05-21T02:39:25.231Z,13.05
2019-05-21T02:42:12.052Z,12.99
2019-05-21T02:44:59.994Z,12.97
2019-05-21T02:47:46.699Z,12.94
2019-05-21T02:50:34.638Z,12.90
2019-05-21T02:53:21.716Z,12.85
2019-05-21T02:56:08.444Z,12.81
2019-05-21T02:58:55.989Z,12.78
2019-05-21T03:01:47.184Z,13.37
2019-05-21T03:04:35.216Z,12.89
2019-05-21T03:07:25.560Z,12.76
2019-05-21T03:10:09.051Z,12.71
2019-05-21T03:12:56.184Z,12.65
2019-05-21T03:15:44.279Z,12.60
2019-05-21T03:18:31.874Z,12.56
2019-05-21T03:21:18.645Z,12.52
2019-05-21T03:24:05.741Z,12.50
2019-05-21T03:26:53.019Z,12.48
2019-05-21T03:32:47.048Z,12.70
2019-05-21T03:35:34.256Z,12.63
2019-05-21T03:38:21.917Z,12.62
2019-05-21T03:41:10.159Z,12.62
2019-05-21T03:43:57.896Z,12.63
2019-05-21T03:46:44.731Z,12.64
2019-05-21T03:49:31.904Z,12.66
2019-05-21T03:52:19.274Z,12.69
2019-05-21T03:55:05.971Z,12.73
2019-05-21T03:57:53.071Z,12.75
2019-05-21T04:00:40.162Z,12.77
2019-05-21T04:03:26.892Z,12.78
2019-05-21T04:06:14.930Z,13.47
2019-05-21T04:09:04.847Z,13.08
2019-05-21T04:11:53.269Z,13.00
2019-05-21T04:17:51.251Z,13.63
2019-05-21T04:20:38.175Z,13.85
2019-05-21T04:23:25.228Z,13.36
2019-05-21T04:26:13.713Z,13.31
2019-05-21T04:29:04.008Z,13.32
2019-05-21T04:31:54.211Z,13.34
2019-05-21T04:34:42.441Z,13.37
2019-05-21T04:37:29.886Z,13.42
2019-05-21T04:40:16.758Z,13.49
2019-05-21T04:43:03.863Z,13.57
2019-05-21T04:45:51.846Z,13.64
2019-05-21T04:48:39.020Z,13.71
2019-05-21T04:54:31.584Z,13.88
2019-05-21T04:57:19.542Z,14.66
2019-05-21T05:00:06.905Z,14.23
2019-05-21T05:02:53.649Z,14.18
2019-05-21T05:05:41.328Z,14.19
2019-05-21T05:08:28.401Z,14.25
2019-05-21T05:11:15.818Z,14.33
2019-05-21T05:14:03.683Z,15.14
2019-05-21T05:16:51.934Z,14.66
2019-05-21T05:19:40.346Z,15.41
2019-05-21T05:22:27.317Z,15.01
2019-05-21T05:25:15.222Z,15.75
2019-05-21T05:28:02.047Z,15.27
2019-05-21T05:30:49.453Z,15.14
2019-05-21T05:33:37.183Z,15.08
2019-05-21T05:36:24.422Z,15.14
2019-05-21T05:39:12.239Z,15.17
2019-05-21T05:41:59.091Z,15.19
2019-05-21T05:44:46.218Z,15.22
2019-05-21T05:47:32.974Z,15.34
2019-05-21T05:50:25.861Z,15.49
2019-05-21T05:53:12.555Z,15.61
2019-05-21T05:56:00.571Z,15.69
2019-05-21T05:58:47.718Z,15.76
2019-05-21T06:01:34.507Z,16.58
2019-05-21T06:04:21.540Z,16.20
2019-05-21T06:07:08.333Z,16.27
2019-05-21T06:09:55.553Z,16.40
2019-05-21T06:12:56.742Z,16.52
2019-05-21T06:15:43.809Z,17.48
2019-05-21T06:18:35.402Z,17.09
2019-05-21T06:27:30.923Z,17.52
2019-05-21T06:30:17.699Z,17.56
2019-05-21T06:33:04.565Z,17.63
2019-05-21T06:39:00.949Z,17.92
2019-05-21T06:41:48.274Z,18.16
2019-05-21T06:44:35.207Z,18.36
2019-05-21T06:47:23.715Z,18.49
2019-05-21T06:50:10.361Z,18.60
2019-05-21T06:52:57.055Z,18.57
2019-05-21T06:55:45.287Z,18.56
2019-05-21T07:01:38.640Z,18.30
2019-05-21T07:04:25.293Z,18.27
2019-05-21T07:07:26.641Z,18.31
2019-05-21T07:10:13.524Z,18.31
2019-05-21T07:13:00.697Z,18.41
2019-05-21T07:18:53.668Z,19.07
2019-05-21T07:21:41.231Z,20.24
2019-05-21T07:24:28.785Z,19.75
2019-05-21T07:27:17.138Z,19.65
2019-05-21T07:30:04.219Z,19.61
2019-05-21T07:32:52.148Z,19.76
2019-05-21T07:35:38.638Z,20.05
2019-05-21T07:41:31.856Z,20.38
2019-05-21T07:44:18.721Z,20.57
2019-05-21T07:47:05.474Z,21.76
2019-05-21T07:49:52.217Z,21.08
2019-05-21T07:52:39.763Z,21.19
2019-05-21T07:55:26.927Z,21.09
2019-05-21T07:58:13.831Z,20.97
2019-05-21T08:01:01.853Z,21.90
2019-05-21T08:03:55.633Z,21.10
2019-05-21T08:06:43.132Z,21.12
2019-05-21T08:09:30.274Z,21.24
2019-05-21T08:12:37.267Z,21.38
2019-05-21T08:15:07.795Z,21.56
2019-05-21T08:17:56.204Z,21.72
2019-05-21T08:23:49.421Z,22.00
2019-05-21T08:26:37.432Z,22.30
2019-05-21T08:29:24.238Z,22.70
2019-05-21T08:32:11.131Z,24.28
2019-05-21T08:34:58.429Z,23.71
2019-05-21T08:37:45.297Z,23.52
2019-05-21T08:40:32.458Z,23.51
2019-05-21T08:43:22.073Z,24.50
2019-05-21T08:46:09.285Z,23.56
2019-05-21T08:48:56.113Z,23.20
2019-05-21T08:51:43.632Z,23.45
2019-05-21T08:54:50.398Z,23.53
2019-05-21T08:57:38.313Z,23.45
2019-05-21T09:00:25.148Z,23.41
2019-05-21T09:03:12.668Z,23.65
2019-05-21T09:05:59.763Z,23.79
2019-05-21T09:08:47.705Z,23.56
2019-05-21T09:11:34.945Z,24.40
2019-05-21T09:14:21.907Z,23.80
2019-05-21T09:17:08.989Z,25.12
2019-05-21T09:20:10.239Z,25.36
2019-05-21T09:26:03.883Z,24.26
2019-05-21T09:28:50.923Z,24.78
2019-05-21T09:31:38.153Z,25.30
2019-05-21T09:34:25.269Z,25.65
2019-05-21T09:37:19.612Z,25.54
2019-05-21T09:39:59.529Z,25.23
2019-05-21T09:42:46.602Z,25.01
2019-05-21T09:45:33.938Z,25.03
2019-05-21T09:48:24.015Z,25.15
2019-05-21T09:51:19.483Z,25.01
2019-05-21T09:53:59.345Z,24.90
2019-05-21T09:56:47.394Z,24.69
2019-05-21T09:59:43.329Z,25.86
2019-05-21T10:02:30.328Z,25.36
2019-05-21T10:05:18.360Z,25.77
2019-05-21T10:08:05.685Z,27.51
2019-05-21T10:10:53.230Z,26.77
2019-05-21T10:13:40.360Z,26.59
2019-05-21T10:19:33.428Z,26.49
2019-05-21T10:22:20.768Z,26.51
2019-05-21T10:25:08.563Z,27.57
2019-05-21T10:27:57.316Z,27.29
2019-05-21T10:30:44.456Z,25.70
2019-05-21T10:33:31.399Z,25.20
2019-05-21T10:36:20.916Z,25.39
2019-05-21T10:39:08.995Z,25.93
2019-05-21T10:41:55.885Z,26.24
2019-05-21T10:44:43.312Z,26.20
2019-05-21T10:47:30.862Z,26.18
2019-05-21T10:50:18.320Z,25.86
2019-05-21T10:53:05.481Z,27.42
2019-05-21T10:55:52.370Z,26.44
2019-05-21T10:58:39.260Z,27.55
2019-05-21T11:01:32.554Z,27.74
2019-05-21T11:04:31.854Z,26.66
2019-05-21T11:07:18.906Z,26.54
2019-05-21T11:10:07.294Z,26.18
2019-05-21T11:12:53.344Z,25.92
2019-05-21T11:15:40.558Z,27.44
2019-05-21T11:18:28.032Z,26.60
2019-05-21T11:21:15.021Z,26.41
2019-05-21T11:24:02.398Z,26.31
2019-05-21T11:26:49.320Z,26.12
2019-05-21T11:29:36.340Z,27.73
2019-05-21T11:32:37.994Z,27.95
2019-05-21T11:35:25.286Z,27.03
2019-05-21T11:41:26.050Z,27.27
2019-05-21T11:47:20.196Z,27.06
2019-05-21T11:50:08.133Z,27.11
2019-05-21T11:52:55.232Z,27.23
2019-05-21T11:55:42.473Z,28.73
2019-05-21T11:58:29.849Z,27.84
2019-05-21T12:01:17.138Z,27.53
2019-05-21T12:04:03.872Z,27.24
2019-05-21T12:06:51.660Z,28.53
2019-05-21T12:09:38.438Z,27.46
2019-05-21T12:12:28.049Z,27.34
2019-05-21T12:15:15.482Z,27.39
2019-05-21T12:18:09.286Z,27.50
2019-05-21T12:20:56.378Z,27.50
2019-05-21T12:23:43.034Z,27.57
2019-05-21T12:26:30.217Z,27.59
2019-05-21T12:29:17.682Z,27.28
2019-05-21T12:32:04.940Z,27.48
2019-05-21T12:34:52.865Z,27.45
2019-05-21T12:37:39.905Z,27.09
2019-05-21T12:40:26.935Z,28.38
2019-05-21T12:43:14.411Z,27.23
2019-05-21T12:49:07.784Z,28.77
2019-05-21T12:51:55.130Z,27.80
2019-05-21T12:57:49.194Z,27.75
2019-05-21T13:00:36.845Z,27.69
2019-05-21T13:03:23.756Z,27.54
2019-05-21T13:06:11.000Z,27.37
2019-05-21T13:08:58.419Z,27.20
2019-05-21T13:11:45.101Z,27.00
2019-05-21T13:17:38.372Z,27.06
2019-05-21T13:20:25.691Z,27.31
2019-05-21T13:23:14.329Z,27.46
2019-05-21T13:26:01.574Z,27.56
2019-05-21T13:29:03.274Z,27.87
2019-05-21T13:31:50.212Z,28.15
2019-05-21T13:34:37.329Z,28.42
2019-05-21T13:37:24.785Z,28.70
2019-05-21T13:40:12.101Z,28.43
2019-05-21T13:42:59.536Z,28.67
2019-05-21T13:45:46.361Z,28.86
2019-05-21T13:48:48.372Z,29.01
2019-05-21T13:51:30.994Z,29.09
2019-05-21T13:54:18.129Z,29.29
2019-05-21T13:57:05.649Z,29.47
2019-05-21T13:59:52.407Z,31.11
2019-05-21T14:02:39.622Z,30.13
2019-05-21T14:05:26.456Z,29.66
2019-05-21T14:08:13.498Z,29.22
2019-05-21T14:11:00.895Z,29.00
2019-05-21T14:13:47.877Z,28.77
2019-05-21T14:16:35.119Z,28.84
2019-05-21T14:19:22.124Z,28.82
2019-05-21T14:22:08.900Z,28.82
2019-05-21T14:24:56.224Z,28.80
2019-05-21T14:27:45.012Z,28.71
2019-05-21T14:30:30.570Z,29.22
2019-05-21T14:33:17.496Z,29.53
2019-05-21T14:36:04.437Z,29.53
2019-05-21T14:38:52.422Z,29.46
2019-05-21T14:41:39.165Z,29.40
2019-05-21T14:44:26.384Z,29.54
2019-05-21T14:47:13.374Z,29.58
2019-05-21T14:50:00.012Z,29.94
2019-05-21T14:52:46.814Z,30.52
2019-05-21T14:55:33.519Z,30.61
2019-05-21T14:58:20.315Z,30.44
2019-05-21T15:01:07.866Z,30.55
2019-05-21T15:03:55.038Z,29.96
2019-05-21T15:06:42.924Z,29.34
2019-05-21T15:09:30.308Z,28.93
2019-05-21T15:12:17.507Z,28.62
2019-05-21T15:15:07.464Z,28.40
2019-05-21T15:17:54.105Z,28.07
2019-05-21T15:20:51.183Z,27.81
2019-05-21T15:23:39.018Z,27.24
2019-05-21T15:26:26.530Z,26.91
2019-05-21T15:29:15.481Z,26.78
2019-05-21T15:32:02.349Z,26.68
2019-05-21T15:34:49.018Z,26.49
2019-05-21T15:37:36.209Z,26.12
2019-05-21T15:40:23.179Z,25.57
2019-05-21T15:43:12.899Z,25.46
2019-05-21T15:46:00.004Z,25.48
2019-05-21T15:48:47.128Z,25.25
2019-05-21T15:51:35.150Z,26.31
2019-05-21T15:54:22.383Z,25.04
2019-05-21T15:57:10.575Z,24.51
2019-05-21T15:59:56.233Z,24.23
2019-05-21T16:02:43.018Z,23.95
2019-05-21T16:05:29.835Z,23.75
2019-05-21T16:08:16.542Z,23.60
2019-05-21T16:11:04.453Z,23.36
2019-05-21T16:13:52.075Z,23.23
2019-05-21T16:16:39.957Z,23.21
2019-05-21T16:19:27.842Z,23.18
2019-05-21T16:22:14.905Z,23.11
2019-05-21T16:25:02.382Z,23.00
2019-05-21T16:27:49.415Z,22.95
2019-05-21T16:30:36.705Z,22.98
2019-05-21T16:33:23.884Z,22.96
2019-05-21T16:36:11.664Z,23.33
2019-05-21T16:38:58.514Z,24.03
2019-05-21T16:41:45.661Z,24.61
2019-05-21T16:44:32.733Z,24.63
2019-05-21T16:47:19.858Z,24.62
2019-05-21T16:50:14.144Z,26.23
2019-05-21T16:53:01.579Z,24.85
2019-05-21T16:55:48.942Z,24.51
2019-05-21T16:58:36.008Z,24.25
2019-05-21T17:01:22.983Z,25.61
2019-05-21T17:04:11.207Z,24.06
2019-05-21T17:07:05.127Z,23.42
2019-05-21T17:09:54.488Z,23.03
2019-05-21T17:12:41.688Z,22.55
2019-05-21T17:15:28.907Z,22.22
2019-05-21T17:18:16.421Z,21.91
2019-05-21T17:21:03.826Z,21.68
2019-05-21T17:23:50.431Z,21.42
2019-05-21T17:26:37.464Z,21.09
2019-05-21T17:29:24.649Z,20.79
2019-05-21T17:32:11.504Z,20.66
2019-05-21T17:34:58.385Z,21.61
2019-05-21T17:37:46.537Z,20.64
2019-05-21T17:40:34.145Z,20.33
2019-05-21T17:43:21.009Z,20.06
2019-05-21T17:46:08.313Z,19.83
2019-05-21T17:48:55.531Z,19.55
2019-05-21T17:51:42.690Z,19.37
2019-05-21T17:54:29.438Z,19.15
2019-05-21T17:57:17.458Z,18.93
2019-05-21T18:00:15.174Z,18.78
2019-05-21T18:03:02.158Z,18.67
2019-05-21T18:05:49.481Z,18.53
2019-05-21T18:08:36.586Z,19.34
2019-05-21T18:11:23.757Z,18.60
2019-05-21T18:14:13.770Z,18.38
2019-05-21T18:17:04.590Z,18.33
2019-05-21T18:19:51.632Z,18.27
2019-05-21T18:22:43.628Z,18.23
2019-05-21T18:25:30.288Z,19.01
2019-05-21T18:28:17.123Z,18.38
2019-05-21T18:31:05.361Z,19.09
2019-05-21T18:33:52.420Z,18.38
2019-05-21T18:36:39.413Z,18.25
2019-05-21T18:39:26.961Z,18.07
2019-05-21T18:42:22.330Z,17.98
2019-05-21T18:45:02.378Z,17.86
2019-05-21T18:47:49.221Z,17.76
2019-05-21T18:50:37.192Z,17.67
2019-05-21T18:53:23.312Z,17.64
2019-05-21T18:56:21.541Z,17.62
2019-05-21T18:59:08.522Z,17.56
2019-05-21T19:01:55.359Z,17.49
2019-05-21T19:04:42.729Z,18.19
2019-05-21T19:07:29.780Z,17.66
2019-05-21T19:10:27.062Z,17.53
2019-05-21T19:13:13.981Z,17.41
2019-05-21T19:16:01.067Z,17.34
2019-05-21T19:18:48.007Z,17.28
2019-05-21T19:21:34.766Z,17.24
2019-05-21T19:24:22.184Z,17.17
2019-05-21T19:27:09.645Z,17.14
2019-05-21T19:29:58.940Z,17.12
2019-05-21T19:32:45.976Z,17.06
2019-05-21T19:35:39.123Z,16.97
2019-05-21T19:38:26.856Z,16.93
2019-05-21T19:41:14.327Z,16.87
2019-05-21T19:44:02.390Z,17.56
2019-05-21T19:46:49.552Z,17.06
2019-05-21T19:49:37.079Z,16.95
2019-05-21T19:52:23.885Z,16.91
2019-05-21T19:55:11.121Z,16.85
2019-05-21T19:57:58.327Z,16.78
2019-05-21T20:00:45.444Z,16.76
2019-05-21T20:03:32.540Z,16.74
2019-05-21T20:06:19.686Z,16.70
2019-05-21T20:09:07.076Z,16.69
2019-05-21T20:11:54.342Z,16.67
2019-05-21T20:14:41.001Z,16.64
2019-05-21T20:17:29.703Z,16.63
2019-05-21T20:20:14.728Z,16.63
2019-05-21T20:23:02.020Z,16.60
2019-05-21T20:25:56.503Z,16.62
2019-05-21T20:28:36.190Z,16.61
2019-05-21T20:31:24.102Z,16.61
2019-05-21T20:34:11.730Z,16.62
2019-05-21T20:40:04.106Z,16.57
2019-05-21T20:42:51.240Z,16.58
2019-05-21T20:45:37.913Z,16.57
2019-05-21T20:48:24.955Z,16.55
2019-05-21T20:51:12.536Z,16.53
2019-05-21T20:53:59.991Z,16.50
2019-05-21T20:56:46.638Z,17.17
2019-05-21T20:59:33.724Z,17.35
2019-05-21T21:02:20.425Z,16.83
2019-05-21T21:05:07.399Z,16.68
2019-05-21T21:07:54.999Z,17.30
2019-05-21T21:10:42.755Z,16.75
2019-05-21T21:13:30.700Z,17.35
2019-05-21T21:16:17.456Z,16.81
2019-05-21T21:19:04.546Z,16.66
2019-05-21T21:21:51.406Z,16.60
2019-05-21T21:24:39.466Z,16.55
2019-05-21T21:27:26.602Z,16.52
2019-05-21T21:30:13.830Z,16.50
2019-05-21T21:33:00.513Z,16.50
2019-05-21T21:35:47.440Z,16.51
2019-05-21T21:38:34.361Z,16.47
2019-05-21T21:41:21.135Z,16.45
2019-05-21T21:44:07.921Z,16.45
2019-05-21T21:46:55.895Z,16.45
2019-05-21T21:49:42.617Z,16.46
2019-05-21T21:52:29.472Z,16.41
2019-05-21T21:55:16.220Z,16.42
2019-05-21T21:58:03.876Z,16.39
2019-05-21T22:01:03.054Z,16.40
2019-05-21T22:06:55.999Z,17.05
2019-05-21T22:09:43.341Z,16.56
2019-05-21T22:12:31.177Z,16.50
2019-05-21T22:15:17.923Z,16.40
2019-05-21T22:18:04.578Z,16.39
2019-05-21T22:20:51.705Z,16.35
2019-05-21T22:23:38.607Z,16.33
2019-05-21T22:26:25.798Z,16.28
2019-05-21T22:29:13.234Z,16.94
2019-05-21T22:32:00.770Z,16.48
2019-05-21T22:34:48.287Z,16.38
2019-05-21T22:37:35.320Z,16.30
2019-05-21T22:40:22.346Z,16.24
2019-05-21T22:43:09.151Z,16.24
2019-05-21T22:45:56.350Z,16.21
2019-05-21T22:48:43.454Z,16.21
2019-05-21T22:51:30.882Z,16.18
2019-05-21T22:54:18.204Z,16.14
2019-05-21T22:57:05.476Z,16.10
2019-05-21T22:59:52.256Z,16.08
2019-05-21T23:02:39.257Z,16.08
2019-05-21T23:05:28.922Z,16.06
2019-05-21T23:08:16.094Z,16.04
2019-05-21T23:11:02.962Z,16.01
2019-05-21T23:13:50.269Z,16.66
2019-05-21T23:16:37.560Z,16.14
2019-05-21T23:19:24.656Z,16.02
2019-05-21T23:22:11.731Z,16.62
2019-05-21T23:24:58.738Z,16.14
2019-05-21T23:27:45.862Z,16.03
2019-05-21T23:30:33.348Z,15.97
2019-05-21T23:33:20.271Z,15.95
2019-05-21T23:36:06.905Z,15.91
2019-05-21T23:38:54.091Z,16.59
2019-05-21T23:41:41.087Z,16.06
2019-05-21T23:44:28.100Z,15.97
2019-05-21T23:50:22.767Z,15.87
2019-05-21T23:53:10.134Z,15.83
2019-05-21T23:55:57.144Z,15.77
2019-05-21T23:58:44.162Z,15.75
